Time;durP1;ratioP1;P1;durP2;ratioP2;P2;SDS_P1;SDS_P2;PMS_P1;PMS_P2;Temp;Humidity;BMP_temperature;BMP_pressure;BME280_temperature;BME280_humidity;BME280_pressure;Samples;Min_cycle;Max_cycle;Signal;HPM_P1;HPM_P2
2023/10/16 00:00:40;;;;;;;1.50;0.50;;;8.20;99.90;;;;;;5019972;28;20045;-69
2023/10/16 00:03:12;;;;;;;3.65;0.43;;;8.20;99.90;;;;;;5012512;28;20054;-69
2023/10/16 00:05:45;;;;;;;3.95;0.25;;;8.20;99.90;;;;;;5010157;28;20310;-70
2023/10/16 00:08:16;;;;;;;4.43;0.40;;;8.30;99.90;;;;;;5023047;28;20049;-69
2023/10/16 00:10:43;;;;;;;1.55;0.10;;;8.30;99.90;;;;;;4996782;28;20038;-69
2023/10/16 00:13:11;;;;;;;2.35;0.30;;;8.20;99.90;;;;;;5011428;28;20095;-69
2023/10/16 00:15:44;;;;;;;0.75;0.30;;;8.30;99.90;;;;;;5015087;28;20068;-69
2023/10/16 00:18:16;;;;;;;1.45;0.32;;;8.20;99.90;;;;;;5013513;28;20044;-69
2023/10/16 00:20:42;;;;;;;1.77;0.32;;;8.20;99.90;;;;;;5013175;28;20044;-70
2023/10/16 00:23:11;;;;;;;4.60;0.57;;;8.20;99.90;;;;;;5016426;28;20120;-69
2023/10/16 00:25:41;;;;;;;1.08;0.38;;;8.20;99.90;;;;;;4992079;28;20052;-70
2023/10/16 00:28:07;;;;;;;3.13;0.45;;;8.20;99.90;;;;;;5018732;28;20124;-69
2023/10/16 00:30:34;;;;;;;;;;;8.20;99.90;;;;;;5016500;28;20033;-70
2023/10/16 00:32:59;;;;;;;2.58;0.40;;;8.20;99.90;;;;;;5012747;28;20314;-70
2023/10/16 00:35:25;;;;;;;4.80;0.70;;;8.20;99.90;;;;;;5011285;28;20045;-70
2023/10/16 00:37:51;;;;;;;0.90;0.50;;;8.20;99.90;;;;;;5012233;28;20199;-70
2023/10/16 00:40:31;;;;;;;1.77;0.33;;;8.20;99.90;;;;;;5013735;28;20037;-70
2023/10/16 00:43:12;;;;;;;1.80;0.40;;;8.20;99.90;;;;;;4991243;28;20052;-70
2023/10/16 00:45:45;;;;;;;2.55;0.77;;;8.30;99.90;;;;;;5014736;28;20060;-70
2023/10/16 00:48:15;;;;;;;3.15;0.45;;;8.30;99.90;;;;;;5010963;28;20050;-71
2023/10/16 00:50:42;;;;;;;2.10;0.40;;;8.30;99.90;;;;;;5011862;28;20764;-70
2023/10/16 00:53:08;;;;;;;2.33;0.30;;;8.40;99.90;;;;;;5014689;28;20131;-70
2023/10/16 00:55:34;;;;;;;1.13;0.57;;;8.40;99.90;;;;;;5016777;28;20528;-70
2023/10/16 00:58:06;;;;;;;4.55;0.38;;;8.40;99.90;;;;;;5018039;28;20057;-70
2023/10/16 01:00:35;;;;;;;1.65;0.30;;;8.40;99.90;;;;;;5002542;28;20048;-71
2023/10/16 01:03:04;;;;;;;1.80;0.20;;;8.50;99.90;;;;;;5014074;28;20528;-70
2023/10/16 01:05:33;;;;;;;1.00;0.45;;;8.40;99.90;;;;;;4999895;28;20119;-70
2023/10/16 01:08:04;;;;;;;0.43;0.20;;;8.40;99.90;;;;;;5017787;28;20521;-71
2023/10/16 01:10:32;;;;;;;2.38;0.20;;;8.40;99.90;;;;;;5009474;28;20049;-70
2023/10/16 01:12:59;;;;;;;3.00;0.40;;;8.50;99.90;;;;;;5012468;28;20092;-70
2023/10/16 01:15:25;;;;;;;1.13;0.40;;;8.50;99.90;;;;;;5003083;28;20457;-70
2023/10/16 01:17:51;;;;;;;;;;;8.50;99.90;;;;;;5010662;28;20406;-70
2023/10/16 01:20:20;;;;;;;0.85;0.30;;;8.50;99.90;;;;;;5016235;28;19917;-70
2023/10/16 01:22:47;;;;;;;0.63;0.20;;;8.40;99.90;;;;;;5018267;28;20077;-70
2023/10/16 01:25:14;;;;;;;2.58;0.40;;;8.40;99.90;;;;;;5002189;28;20124;-70
2023/10/16 01:27:42;;;;;;;2.10;0.20;;;8.40;99.90;;;;;;4998651;28;20049;-70
2023/10/16 01:30:09;;;;;;;3.55;0.60;;;8.50;99.90;;;;;;5012201;28;20050;-70
2023/10/16 01:32:35;;;;;;;3.63;0.30;;;8.50;99.90;;;;;;5012850;28;20448;-70
2023/10/16 01:35:00;;;;;;;2.78;0.45;;;8.50;99.90;;;;;;5011830;28;20041;-70
2023/10/16 01:37:26;;;;;;;3.70;0.33;;;8.50;99.90;;;;;;5006740;28;20507;-70
2023/10/16 01:40:11;;;;;;;1.30;0.25;;;8.40;99.90;;;;;;5020136;28;21312;-70
2023/10/16 01:42:39;;;;;;;1.52;0.40;;;8.50;99.90;;;;;;5013293;28;20053;-70
2023/10/16 01:45:05;;;;;;;3.90;0.30;;;8.40;99.90;;;;;;5009875;28;20038;-72
2023/10/16 01:47:34;;;;;;;1.38;0.40;;;8.40;99.90;;;;;;5018899;28;20041;-73
2023/10/16 01:50:01;;;;;;;2.70;0.50;;;8.40;99.90;;;;;;5014588;28;20325;-73
2023/10/16 01:52:27;;;;;;;5.07;0.70;;;8.40;99.90;;;;;;5013627;28;20517;-72
2023/10/16 01:54:53;;;;;;;0.63;0.13;;;8.40;99.90;;;;;;5011085;28;20033;-72
2023/10/16 01:57:21;;;;;;;3.13;0.40;;;8.40;99.90;;;;;;5017238;28;20291;-72
2023/10/16 01:59:51;;;;;;;1.27;0.45;;;8.40;99.90;;;;;;5008163;28;20391;-72
2023/10/16 02:02:17;;;;;;;3.95;0.30;;;8.40;99.90;;;;;;5018767;28;20497;-72
2023/10/16 02:04:44;;;;;;;3.72;0.55;;;8.30;99.90;;;;;;5007799;28;20398;-72
2023/10/16 02:07:11;;;;;;;2.33;0.40;;;8.30;99.90;;;;;;5015520;28;20498;-73
2023/10/16 02:09:38;;;;;;;4.25;0.30;;;8.30;99.90;;;;;;5014842;28;20037;-73
2023/10/16 02:12:16;;;;;;;1.15;0.25;;;8.20;99.90;;;;;;5001842;28;20086;-73
2023/10/16 02:14:45;;;;;;;1.38;0.40;;;8.20;99.90;;;;;;5009594;28;20045;-73
2023/10/16 02:17:22;;;;;;;1.65;0.38;;;8.20;99.90;;;;;;5016166;28;20457;-73
2023/10/16 02:19:48;;;;;;;;;;;8.20;99.90;;;;;;5011878;28;20453;-72
2023/10/16 02:22:16;;;;;;;1.80;0.35;;;8.10;99.90;;;;;;5014831;28;19925;-73
2023/10/16 02:24:41;;;;;;;1.88;0.25;;;8.20;99.90;;;;;;4998864;28;20221;-73
2023/10/16 02:27:14;;;;;;;1.88;0.50;;;8.20;99.90;;;;;;5019144;28;20175;-72
2023/10/16 02:29:45;;;;;;;1.55;0.45;;;8.20;99.90;;;;;;5000704;28;20051;-73
2023/10/16 02:32:12;;;;;;;3.58;0.40;;;8.10;99.90;;;;;;5013211;28;20515;-72
2023/10/16 02:34:41;;;;;;;1.73;0.57;;;8.20;99.90;;;;;;5011569;28;20046;-72
2023/10/16 02:37:10;;;;;;;5.65;0.50;;;8.20;99.90;;;;;;5018416;28;20128;-72
2023/10/16 02:39:36;;;;;;;1.25;0.40;;;8.20;99.90;;;;;;5008297;28;20046;-72
2023/10/16 02:42:14;;;;;;;2.97;0.47;;;8.30;99.90;;;;;;5020698;28;20045;-73
2023/10/16 02:44:42;;;;;;;0.88;0.20;;;8.30;99.90;;;;;;5010957;28;20050;-73
2023/10/16 02:47:19;;;;;;;1.10;0.27;;;8.30;99.90;;;;;;5014548;28;20395;-72
2023/10/16 02:49:47;;;;;;;3.17;0.30;;;8.30;99.90;;;;;;5010435;28;20053;-73
2023/10/16 02:52:16;;;;;;;1.55;0.30;;;8.30;99.90;;;;;;5013973;28;20191;-73
2023/10/16 02:54:42;;;;;;;1.85;0.40;;;8.40;99.90;;;;;;5013429;28;20090;-72
2023/10/16 02:57:10;;;;;;;3.58;0.35;;;8.40;99.90;;;;;;5020974;28;20124;-72
2023/10/16 02:59:38;;;;;;;2.63;0.43;;;8.40;99.90;;;;;;5006729;28;20131;-72
2023/10/16 03:02:17;;;;;;;2.28;0.32;;;8.40;99.90;;;;;;5013417;28;20081;-72
2023/10/16 03:04:56;;;;;;;2.10;0.43;;;8.30;99.90;;;;;;5015075;28;20134;-72
2023/10/16 03:07:22;;;;;;;1.13;0.40;;;8.40;99.90;;;;;;5018817;28;20041;-73
2023/10/16 03:09:52;;;;;;;4.47;0.22;;;8.40;99.90;;;;;;5012546;28;20052;-72
2023/10/16 03:12:19;;;;;;;1.80;0.40;;;8.40;99.90;;;;;;5016767;28;20076;-72
2023/10/16 03:14:58;;;;;;;3.63;0.40;;;8.40;99.90;;;;;;5017474;28;20038;-73
2023/10/16 03:17:34;;;;;;;2.40;0.30;;;8.40;99.90;;;;;;5013613;28;20038;-73
2023/10/16 03:20:01;;;;;;;4.90;0.17;;;8.40;99.90;;;;;;5012468;28;20054;-73
2023/10/16 03:22:28;;;;;;;3.08;0.40;;;8.50;99.90;;;;;;5020308;28;20046;-72
2023/10/16 03:24:59;;;;;;;0.88;0.30;;;8.50;99.90;;;;;;5020190;28;20096;-73
2023/10/16 03:27:28;;;;;;;2.80;0.70;;;8.50;99.90;;;;;;5017008;28;20055;-73
2023/10/16 03:29:58;;;;;;;3.53;0.85;;;8.50;99.90;;;;;;5009562;28;20042;-73
2023/10/16 03:32:24;;;;;;;1.65;0.93;;;8.50;99.90;;;;;;5013375;28;20084;-72
2023/10/16 03:34:57;;;;;;;1.88;0.57;;;8.60;99.90;;;;;;5013003;28;20049;-72
2023/10/16 03:37:24;;;;;;;1.38;0.32;;;8.60;99.90;;;;;;5019248;28;20069;-72
2023/10/16 03:40:04;;;;;;;2.10;0.68;;;8.60;99.90;;;;;;5013589;28;20068;-73
2023/10/16 03:42:32;;;;;;;3.97;0.68;;;8.70;99.90;;;;;;5015649;28;20506;-73
2023/10/16 03:45:01;;;;;;;1.00;0.52;;;8.70;99.90;;;;;;5012917;28;20042;-73
2023/10/16 03:47:27;;;;;;;2.05;0.70;;;8.60;99.90;;;;;;4989373;28;20132;-73
2023/10/16 03:49:53;;;;;;;2.33;0.50;;;8.70;99.90;;;;;;5014242;28;20128;-73
2023/10/16 03:52:22;;;;;;;3.72;0.40;;;8.70;99.90;;;;;;5020756;28;20113;-73
2023/10/16 03:54:53;;;;;;;5.05;0.45;;;8.80;99.90;;;;;;5019530;28;20037;-73
2023/10/16 03:57:20;;;;;;;1.30;0.45;;;8.80;99.90;;;;;;5013879;28;20030;-73
2023/10/16 03:59:47;;;;;;;1.27;0.30;;;8.80;99.90;;;;;;5019276;28;20065;-73
2023/10/16 04:02:23;;;;;;;1.08;0.40;;;8.80;99.90;;;;;;5010905;28;20037;-73
2023/10/16 04:04:53;;;;;;;3.57;0.37;;;8.80;99.90;;;;;;5021825;28;20069;-73
2023/10/16 04:07:22;;;;;;;1.48;0.20;;;8.80;99.90;;;;;;5022514;28;20046;-73
2023/10/16 04:09:52;;;;;;;1.67;0.50;;;8.80;99.90;;;;;;4996885;28;20034;-73
2023/10/16 04:12:22;;;;;;;3.72;0.60;;;8.80;99.90;;;;;;5018029;28;20041;-73
2023/10/16 04:14:55;;;;;;;5.30;0.50;;;8.80;99.90;;;;;;5010490;28;20049;-73
2023/10/16 04:17:25;;;;;;;2.92;0.80;;;8.70;99.90;;;;;;5015903;28;20056;-73
2023/10/16 04:19:59;;;;;;;3.65;0.50;;;8.70;99.90;;;;;;5016294;28;20557;-72
2023/10/16 04:22:27;;;;;;;0.82;0.30;;;8.70;99.90;;;;;;5015943;28;20037;-72
2023/10/16 04:24:55;;;;;;;1.15;0.50;;;8.70;99.90;;;;;;4999886;28;20045;-72
2023/10/16 04:27:34;;;;;;;1.98;0.45;;;8.60;99.90;;;;;;5014013;28;20037;-72
2023/10/16 04:30:32;;;;;;;1.65;0.20;;;8.60;99.90;;;;;;5011165;28;20053;-72
2023/10/16 04:33:02;;;;;;;3.08;0.43;;;8.60;99.90;;;;;;5006442;28;20037;-73
2023/10/16 04:38:27;;;;;;;2.75;0.40;;;8.60;99.90;;;;;;5012257;28;20037;-73
2023/10/16 04:43:51;;;;;;;1.70;0.43;;;8.60;99.90;;;;;;5012688;28;20081;-73
2023/10/16 04:46:20;;;;;;;1.80;0.77;;;8.60;99.90;;;;;;5022702;28;20049;-73
2023/10/16 04:48:50;;;;;;;2.55;0.45;;;8.60;99.90;;;;;;5014346;28;20042;-73
2023/10/16 04:51:17;;;;;;;1.77;0.50;;;8.60;99.90;;;;;;5028881;28;20046;-73
2023/10/16 04:53:59;;;;;;;1.52;0.60;;;8.60;99.90;;;;;;5019931;28;20079;-73
2023/10/16 05:02:16;;;;;;;3.22;0.85;;;8.70;99.90;;;;;;5023721;28;20069;-73
2023/10/16 05:04:59;;;;;;;1.73;0.70;;;8.70;99.90;;;;;;5009944;28;20041;-73
2023/10/16 05:07:53;;;;;;;1.55;0.40;;;8.70;99.90;;;;;;5002994;28;20041;-73
2023/10/16 05:10:51;;;;;;;1.30;0.30;;;8.70;99.90;;;;;;5012509;28;20057;-73
2023/10/16 05:13:24;;;;;;;3.53;0.55;;;8.70;99.90;;;;;;5019014;28;20665;-73
2023/10/16 05:16:36;;;;;;;3.90;0.45;;;8.70;99.90;;;;;;5014313;28;20490;-73
2023/10/16 05:18:43;;;;;;;2.03;0.30;;;8.70;99.90;;;;;;5017013;28;20560;-73
2023/10/16 06:16:03;;;;;;;2.38;0.88;;;8.70;99.90;;;;;;5011858;28;20045;-73
2023/10/16 06:18:30;;;;;;;1.60;0.80;;;8.70;99.90;;;;;;5017388;28;20059;-73
2023/10/16 06:21:00;;;;;;;2.63;0.52;;;8.60;99.90;;;;;;5012426;28;20049;-73
2023/10/16 06:23:28;;;;;;;5.40;1.20;;;8.60;99.90;;;;;;5017820;28;20406;-73
2023/10/16 06:26:01;;;;;;;4.20;1.45;;;8.60;99.90;;;;;;4997028;28;21113;-73
2023/10/16 06:28:29;;;;;;;3.75;0.75;;;8.70;99.90;;;;;;5012090;28;20046;-73
2023/10/16 06:30:55;;;;;;;1.02;0.55;;;8.60;99.90;;;;;;5012765;28;20123;-73
2023/10/16 06:33:20;;;;;;;4.67;1.03;;;8.60;99.90;;;;;;5011188;28;20069;-72
2023/10/16 06:35:47;;;;;;;3.90;1.30;;;8.60;99.90;;;;;;5013125;28;20140;-73
2023/10/16 06:38:14;;;;;;;4.05;1.17;;;8.60;99.90;;;;;;5018965;28;20064;-73
2023/10/16 06:40:40;;;;;;;3.53;1.00;;;8.70;99.90;;;;;;5011477;28;20462;-73
2023/10/16 06:43:09;;;;;;;4.45;1.00;;;8.70;99.90;;;;;;5007231;28;20052;-73
2023/10/16 06:46:09;;;;;;;3.13;0.70;;;8.70;99.90;;;;;;5011698;28;20034;-73
2023/10/16 06:48:27;;;;;;;2.83;0.80;;;8.80;99.90;;;;;;5016490;28;20431;-73
2023/10/16 06:51:03;;;;;;;1.95;0.85;;;8.80;99.90;;;;;;5007494;28;20054;-73
2023/10/16 06:53:30;;;;;;;3.60;1.13;;;8.80;99.90;;;;;;5019546;28;20172;-73
2023/10/16 06:55:59;;;;;;;4.18;1.05;;;8.90;99.90;;;;;;5021354;28;20077;-73
2023/10/16 06:58:28;;;;;;;5.28;1.05;;;8.90;99.90;;;;;;5015751;28;20643;-73
2023/10/16 07:00:57;;;;;;;4.45;1.30;;;9.00;99.90;;;;;;5016048;28;20132;-73
2023/10/16 07:03:22;;;;;;;3.13;1.60;;;9.00;99.90;;;;;;4989450;28;20056;-74
2023/10/16 07:05:48;;;;;;;4.90;1.60;;;9.00;99.90;;;;;;5014733;28;20043;-73
2023/10/16 07:08:19;;;;;;;5.78;1.50;;;9.10;99.90;;;;;;5016924;28;20046;-73
2023/10/16 07:10:52;;;;;;;2.53;0.70;;;9.10;99.90;;;;;;5013903;28;20057;-73
2023/10/16 07:13:29;;;;;;;5.38;0.88;;;9.10;99.90;;;;;;5015433;28;20085;-73
2023/10/16 07:15:56;;;;;;;2.88;1.15;;;9.20;99.90;;;;;;5014661;28;20080;-73
2023/10/16 07:18:25;;;;;;;2.78;1.20;;;9.10;99.90;;;;;;5012502;28;20065;-73
2023/10/16 07:23:34;;;;;;;4.35;0.90;;;9.20;99.90;;;;;;5017254;28;20045;-73
2023/10/16 07:26:04;;;;;;;6.70;1.13;;;9.30;99.90;;;;;;5017294;28;20091;-73
2023/10/16 07:28:31;;;;;;;4.50;1.10;;;9.30;99.90;;;;;;5016934;28;20054;-73
2023/10/16 07:30:57;;;;;;;;;;;9.30;99.90;;;;;;5021976;28;20714;-73
2023/10/16 07:33:24;;;;;;;4.63;1.40;;;9.30;99.90;;;;;;5018988;28;19917;-74
2023/10/16 07:35:53;;;;;;;3.25;1.30;;;9.30;99.90;;;;;;5001794;28;20510;-73
2023/10/16 07:38:25;;;;;;;3.40;1.00;;;9.40;99.90;;;;;;5019557;28;20038;-73
2023/10/16 07:40:58;;;;;;;3.10;0.95;;;9.40;99.90;;;;;;5021188;28;20052;-73
2023/10/16 07:43:28;;;;;;;8.90;1.52;;;9.40;99.90;;;;;;5012800;28;20037;-73
2023/10/16 07:46:28;;;;;;;4.13;1.52;;;9.50;99.90;;;;;;5020457;28;20151;-73
2023/10/16 07:48:54;;;;;;;4.20;1.30;;;9.50;99.90;;;;;;5016363;28;20073;-73
2023/10/16 07:51:24;;;;;;;4.13;1.35;;;9.60;99.90;;;;;;5014092;28;20038;-73
2023/10/16 07:53:49;;;;;;;4.55;1.20;;;9.60;99.90;;;;;;5023636;28;20303;-73
2023/10/16 07:56:19;;;;;;;2.40;1.05;;;9.70;99.90;;;;;;5017675;28;20490;-74
2023/10/16 07:58:48;;;;;;;5.97;1.30;;;9.80;99.90;;;;;;5022892;28;20183;-74
2023/10/16 08:01:32;;;;;;;4.80;1.10;;;9.90;99.90;;;;;;5019294;28;20041;-73
2023/10/16 08:03:58;;;;;;;6.32;1.60;;;9.90;99.90;;;;;;4997757;28;20392;-73
2023/10/16 08:06:25;;;;;;;;;;;10.00;99.90;;;;;;5012468;28;20458;-73
2023/10/16 08:09:48;;;;;;;6.45;1.77;;;10.00;99.90;;;;;;5019350;28;20378;-73
2023/10/16 08:11:43;;;;;;;5.57;1.20;;;10.00;99.90;;;;;;5014013;28;20363;-74
2023/10/16 08:14:10;;;;;;;6.05;0.90;;;10.00;99.90;;;;;;5018894;28;20041;-73
2023/10/16 08:16:38;;;;;;;4.38;0.85;;;10.10;99.90;;;;;;5018810;28;20052;-73
2023/10/16 08:19:14;;;;;;;4.78;0.75;;;10.10;99.90;;;;;;5020487;28;20345;-73
2023/10/16 08:21:42;;;;;;;2.13;0.95;;;10.10;99.90;;;;;;5016216;28;20060;-73
2023/10/16 08:24:13;;;;;;;2.05;0.80;;;10.20;99.90;;;;;;5019356;28;20045;-73
2023/10/16 08:26:43;;;;;;;4.72;0.88;;;10.20;99.90;;;;;;4998845;28;20042;-73
2023/10/16 08:29:12;;;;;;;2.10;0.75;;;10.20;99.90;;;;;;5021088;28;20865;-73
2023/10/16 08:31:42;;;;;;;4.55;1.13;;;10.30;99.90;;;;;;5018827;28;20041;-73
2023/10/16 08:34:13;;;;;;;6.20;1.63;;;10.30;99.90;;;;;;4996476;28;20429;-74
2023/10/16 08:36:39;;;;;;;3.72;1.40;;;10.30;99.90;;;;;;5014739;28;20041;-73
2023/10/16 08:39:17;;;;;;;5.75;1.33;;;10.30;99.90;;;;;;5016141;28;20064;-74
2023/10/16 08:41:43;;;;;;;2.92;0.85;;;10.40;99.90;;;;;;5014461;28;20049;-73
2023/10/16 08:44:17;;;;;;;3.05;0.80;;;10.30;99.90;;;;;;5014994;28;20049;-74
2023/10/16 08:46:45;;;;;;;3.13;0.80;;;10.40;99.90;;;;;;5014543;28;20420;-73
2023/10/16 08:49:11;;;;;;;3.60;0.77;;;10.40;99.90;;;;;;5010529;28;20492;-74
2023/10/16 08:51:36;;;;;;;2.70;0.75;;;10.40;99.90;;;;;;5023057;28;20164;-74
2023/10/16 08:54:26;;;;;;;6.57;1.13;;;10.40;99.90;;;;;;5016991;28;20038;-73
2023/10/16 08:56:49;;;;;;;3.60;0.90;;;10.50;99.90;;;;;;5020484;28;20045;-73
2023/10/16 08:59:15;;;;;;;3.42;1.33;;;10.50;99.90;;;;;;5016916;28;20071;-73
2023/10/16 09:01:40;;;;;;;4.38;1.00;;;10.60;99.90;;;;;;5025615;28;20045;-74
2023/10/16 09:04:12;;;;;;;2.70;0.97;;;10.60;99.90;;;;;;5015348;28;20143;-73
2023/10/16 09:06:38;;;;;;;5.43;1.02;;;10.70;99.90;;;;;;5010023;28;20037;-73
2023/10/16 09:09:13;;;;;;;11.40;1.60;;;10.70;99.90;;;;;;5017956;28;20048;-74
2023/10/16 09:11:39;;;;;;;4.72;0.57;;;10.70;99.90;;;;;;5015697;28;20041;-79
2023/10/16 09:14:07;;;;;;;3.53;0.93;;;10.80;99.90;;;;;;5013693;28;20377;-73
2023/10/16 09:16:34;;;;;;;3.53;0.93;;;10.80;99.90;;;;;;5019111;28;20049;-74
2023/10/16 09:19:06;;;;;;;5.45;0.85;;;10.80;99.90;;;;;;5017204;28;20286;-71
2023/10/16 09:21:38;;;;;;;4.97;0.88;;;10.80;99.90;;;;;;5005571;28;20046;-71
2023/10/16 09:24:05;;;;;;;4.18;0.75;;;10.80;99.90;;;;;;5000811;28;20068;-71
2023/10/16 09:26:38;;;;;;;5.47;0.90;;;11.00;99.90;;;;;;5002329;28;20936;-71
2023/10/16 09:29:13;;;;;;;5.40;0.90;;;11.00;99.90;;;;;;4998908;28;20041;-71
2023/10/16 09:31:43;;;;;;;5.75;1.00;;;11.10;99.90;;;;;;5019231;28;20041;-72
2023/10/16 09:34:10;;;;;;;6.35;0.98;;;11.10;99.90;;;;;;5018693;28;20544;-72
2023/10/16 09:36:37;;;;;;;3.28;1.00;;;11.20;99.90;;;;;;5020156;28;20148;-71
2023/10/16 09:39:16;;;;;;;5.68;0.93;;;11.20;99.90;;;;;;5016798;28;20052;-71
2023/10/16 09:41:43;;;;;;;3.22;0.80;;;11.40;99.90;;;;;;5016899;28;20058;-71
2023/10/16 09:44:22;;;;;;;2.30;1.00;;;11.40;99.90;;;;;;5002489;28;20087;-71
2023/10/16 09:49:27;;;;;;;;;;;11.60;99.90;;;;;;5016202;28;20041;-72
2023/10/16 09:52:04;;;;;;;6.18;1.13;;;11.70;99.90;;;;;;5017227;28;19921;-71
2023/10/16 09:54:30;;;;;;;3.40;0.70;;;11.80;99.90;;;;;;5016825;28;20040;-71
2023/10/16 09:57:00;;;;;;;4.43;1.08;;;11.80;99.90;;;;;;5013427;28;20492;-71
2023/10/16 09:59:34;;;;;;;4.18;0.70;;;11.80;99.90;;;;;;5001896;28;20045;-72
2023/10/16 10:02:16;;;;;;;4.38;0.77;;;11.90;99.90;;;;;;5016604;28;20037;-71
2023/10/16 10:04:59;;;;;;;7.72;0.80;;;11.90;99.90;;;;;;5024016;28;20121;-72
2023/10/16 10:07:38;;;;;;;5.53;1.35;;;11.80;99.90;;;;;;5017226;28;20498;-72
2023/10/16 10:11:04;;;;;;;5.72;1.33;;;11.80;99.90;;;;;;5020053;28;20814;-71
2023/10/16 10:12:56;;;;;;;3.00;0.70;;;11.80;99.90;;;;;;5014550;28;20052;-72
2023/10/16 10:15:28;;;;;;;2.55;0.80;;;11.70;99.90;;;;;;5023056;28;20120;-71
2023/10/16 10:18:01;;;;;;;5.28;1.20;;;11.70;99.90;;;;;;5023307;28;20046;-71
2023/10/16 10:20:31;;;;;;;2.35;0.80;;;11.70;99.90;;;;;;5015520;28;20083;-71
2023/10/16 10:23:05;;;;;;;4.38;0.90;;;11.60;99.90;;;;;;5020253;28;20486;-72
2023/10/16 10:25:37;;;;;;;3.40;0.73;;;11.70;99.90;;;;;;5014027;28;20416;-71
2023/10/16 10:28:22;;;;;;;2.15;0.50;;;11.70;99.90;;;;;;5012727;28;20041;-72
2023/10/16 10:30:50;;;;;;;4.88;0.85;;;11.80;99.90;;;;;;4997464;28;20045;-72
2023/10/16 10:33:37;;;;;;;4.18;0.90;;;11.90;99.90;;;;;;5019070;28;20040;-71
2023/10/16 10:36:27;;;;;;;2.30;0.70;;;12.00;99.90;;;;;;5020417;28;20034;-71
2023/10/16 10:42:08;;;;;;;2.42;0.52;;;12.20;99.90;;;;;;5015398;28;20045;-71
2023/10/16 10:44:45;;;;;;;2.50;0.40;;;12.30;99.90;;;;;;5006909;28;20088;-74
2023/10/16 10:47:31;;;;;;;5.78;0.60;;;12.30;99.90;;;;;;5017488;28;20402;-74
2023/10/16 10:49:59;;;;;;;2.65;0.50;;;12.40;99.90;;;;;;5013221;28;20041;-74
2023/10/16 10:52:30;;;;;;;2.78;0.50;;;12.50;99.90;;;;;;4993103;28;20846;-74
2023/10/16 10:55:00;;;;;;;3.88;0.60;;;12.60;99.90;;;;;;5031756;28;20228;-74
2023/10/16 10:57:27;;;;;;;1.27;0.40;;;12.60;99.90;;;;;;5001925;28;20119;-73
2023/10/16 11:03:08;;;;;;;;;;;12.70;99.90;;;;;;5039993;28;20127;-72
2023/10/16 11:05:39;;;;;;;3.67;0.70;;;12.70;99.90;;;;;;5017738;28;20271;-72
2023/10/16 11:10:46;;;;;;;5.70;0.90;;;12.90;99.90;;;;;;5019684;28;20065;-70
2023/10/16 11:13:14;;;;;;;4.30;0.85;;;12.90;99.90;;;;;;5016420;28;20544;-69
2023/10/16 11:15:53;;;;;;;2.75;0.50;;;13.00;99.90;;;;;;5024234;28;20302;-69
2023/10/16 11:18:20;;;;;;;4.07;0.50;;;13.10;99.90;;;;;;5022102;28;20060;-69
2023/10/16 11:21:04;;;;;;;0.82;0.47;;;13.10;99.90;;;;;;5020893;28;20048;-69
2023/10/16 11:23:38;;;;;;;3.72;0.77;;;13.10;99.90;;;;;;5027010;28;20147;-69
2023/10/16 11:26:05;;;;;;;2.42;0.45;;;13.20;99.90;;;;;;5021010;28;20044;-71
2023/10/16 11:28:32;;;;;;;2.10;0.57;;;13.30;99.90;;;;;;5006441;28;20037;-71
2023/10/16 11:31:00;;;;;;;1.65;0.45;;;13.40;99.90;;;;;;5022127;28;20960;-71
2023/10/16 11:33:34;;;;;;;3.78;0.40;;;13.40;99.90;;;;;;5012976;28;20513;-71
2023/10/16 11:36:06;;;;;;;2.80;0.40;;;13.40;99.90;;;;;;5025265;28;20042;-70
2023/10/16 11:38:36;;;;;;;4.10;0.50;;;13.40;99.90;;;;;;5018028;28;20547;-71
2023/10/16 11:41:24;;;;;;;1.70;0.65;;;13.40;99.90;;;;;;5019017;28;20503;-71
2023/10/16 11:43:54;;;;;;;4.30;1.13;;;13.30;99.90;;;;;;5016282;28;20450;-71
2023/10/16 11:46:44;;;;;;;6.38;1.33;;;13.30;99.90;;;;;;5019517;28;23227;-71
2023/10/16 11:49:35;;;;;;;3.90;1.40;;;13.20;99.90;;;;;;5017425;28;20046;-70
2023/10/16 11:52:19;;;;;;;3.42;0.80;;;13.30;99.90;;;;;;5020944;28;20057;-71
2023/10/16 11:54:56;;;;;;;2.13;0.40;;;13.30;99.90;;;;;;5022436;28;20065;-71
2023/10/16 11:57:23;;;;;;;3.78;1.48;;;13.40;99.90;;;;;;5023588;28;20041;-71
2023/10/16 11:59:51;;;;;;;2.60;0.60;;;13.40;99.90;;;;;;5021414;28;20038;-71
2023/10/16 12:02:23;;;;;;;1.83;0.63;;;13.50;99.90;;;;;;5025110;28;20091;-71
2023/10/16 12:04:49;;;;;;;1.83;0.55;;;13.60;99.90;;;;;;5013783;28;20565;-71
2023/10/16 12:07:18;;;;;;;2.65;0.40;;;13.70;99.90;;;;;;5020800;28;20041;-71
2023/10/16 12:09:52;;;;;;;3.88;0.60;;;13.70;99.90;;;;;;5017871;28;20421;-70
2023/10/16 12:12:21;;;;;;;2.78;0.50;;;13.80;99.90;;;;;;5019877;28;20048;-71
2023/10/16 12:14:48;;;;;;;4.60;0.50;;;13.70;99.90;;;;;;5014331;28;20037;-70
2023/10/16 12:17:23;;;;;;;2.38;0.70;;;13.80;99.90;;;;;;5023942;28;20038;-70
2023/10/16 12:19:52;;;;;;;2.33;0.55;;;13.80;99.90;;;;;;5010816;28;20117;-70
2023/10/16 12:22:20;;;;;;;3.13;0.68;;;13.80;99.90;;;;;;5001080;28;20041;-70
2023/10/16 12:24:47;;;;;;;2.03;0.82;;;13.90;99.90;;;;;;5020143;28;20049;-70
2023/10/16 12:27:15;;;;;;;3.38;0.85;;;13.80;99.90;;;;;;5020044;28;20045;-70
2023/10/16 12:29:44;;;;;;;3.42;0.52;;;13.80;99.90;;;;;;5017228;28;20041;-70
2023/10/16 12:32:10;;;;;;;5.65;0.70;;;13.80;99.90;;;;;;5018914;28;20046;-70
2023/10/16 12:34:40;;;;;;;2.65;0.60;;;13.80;99.90;;;;;;5015207;28;20103;-70
2023/10/16 12:37:07;;;;;;;3.53;1.13;;;13.70;99.90;;;;;;5020907;28;20076;-70
2023/10/16 12:39:35;;;;;;;5.00;0.75;;;13.60;99.90;;;;;;5022167;28;20494;-69
2023/10/16 12:42:05;;;;;;;5.00;0.85;;;13.50;99.90;;;;;;5020772;28;20112;-69
2023/10/16 12:44:31;;;;;;;5.95;1.48;;;13.50;99.90;;;;;;5000816;28;20069;-70
2023/10/16 12:46:58;;;;;;;4.80;1.10;;;13.40;99.90;;;;;;5019982;28;20041;-70
2023/10/16 12:49:25;;;;;;;3.65;0.63;;;13.40;99.90;;;;;;5015505;28;20373;-70
2023/10/16 12:51:51;;;;;;;7.25;0.60;;;13.40;99.90;;;;;;5014213;28;20065;-71
2023/10/16 12:54:19;;;;;;;3.30;0.63;;;13.40;99.90;;;;;;5021533;28;20045;-71
2023/10/16 12:56:45;;;;;;;1.55;0.50;;;13.30;99.90;;;;;;5015043;28;20667;-71
2023/10/16 12:59:14;;;;;;;1.75;0.40;;;13.40;99.90;;;;;;5021099;28;20282;-71
2023/10/16 13:01:41;;;;;;;4.47;0.73;;;13.40;99.90;;;;;;5020299;28;20053;-71
2023/10/16 13:04:13;;;;;;;3.85;0.60;;;13.40;99.90;;;;;;5020072;28;20041;-71
2023/10/16 13:06:39;;;;;;;3.22;0.63;;;13.50;99.90;;;;;;5019067;28;20402;-71
2023/10/16 13:09:05;;;;;;;2.15;0.95;;;13.50;99.90;;;;;;5018212;28;20038;-70
2023/10/16 13:11:31;;;;;;;4.97;0.82;;;13.50;99.90;;;;;;5013009;28;20107;-71
2023/10/16 13:13:57;;;;;;;9.18;0.40;;;13.50;99.90;;;;;;5015153;28;20503;-70
2023/10/16 13:16:26;;;;;;;6.38;0.52;;;13.50;99.90;;;;;;5017050;28;20041;-70
2023/10/16 13:18:58;;;;;;;2.85;1.13;;;13.50;99.90;;;;;;5017865;28;20044;-69
2023/10/16 13:21:33;;;;;;;2.22;0.75;;;13.60;99.90;;;;;;5001306;28;20120;-70
2023/10/16 13:24:05;;;;;;;4.90;0.50;;;13.60;99.90;;;;;;5022639;28;20045;-69
2023/10/16 13:26:40;;;;;;;3.97;0.52;;;13.60;99.90;;;;;;5004381;28;20477;-70
2023/10/16 13:29:07;;;;;;;5.85;0.68;;;13.60;99.90;;;;;;5026315;28;20048;-69
2023/10/16 13:31:40;;;;;;;1.95;0.90;;;13.60;99.90;;;;;;5002369;28;20052;-71
2023/10/16 13:34:11;;;;;;;2.17;0.70;;;13.60;99.90;;;;;;5009830;28;20131;-70
2023/10/16 13:37:00;;;;;;;2.70;0.52;;;13.60;99.90;;;;;;5016538;28;20565;-75
2023/10/16 13:39:31;;;;;;;4.22;0.50;;;13.70;99.90;;;;;;5009677;28;20040;-70
2023/10/16 13:42:00;;;;;;;2.67;0.80;;;13.60;99.90;;;;;;5015166;28;20049;-70
2023/10/16 13:44:25;;;;;;;3.88;0.40;;;13.60;99.90;;;;;;4991740;28;20048;-70
2023/10/16 13:46:55;;;;;;;2.78;0.70;;;13.60;99.90;;;;;;5018537;28;20041;-70
2023/10/16 13:49:24;;;;;;;3.00;0.50;;;13.70;99.90;;;;;;5012016;28;20050;-70
2023/10/16 13:51:55;;;;;;;2.72;0.57;;;13.60;99.90;;;;;;5009764;28;20524;-70
2023/10/16 13:54:20;;;;;;;2.17;0.55;;;13.60;99.90;;;;;;5021009;28;20041;-70
2023/10/16 13:56:46;;;;;;;4.75;0.65;;;13.60;99.90;;;;;;5017848;28;20171;-70
2023/10/16 13:59:18;;;;;;;6.00;1.25;;;13.60;99.90;;;;;;5019754;28;20073;-70
2023/10/16 14:01:44;;;;;;;4.47;1.23;;;13.50;99.90;;;;;;4998151;28;20057;-70
2023/10/16 14:04:14;;;;;;;3.10;0.70;;;13.40;99.90;;;;;;5019027;28;20048;-70
2023/10/16 14:06:52;;;;;;;3.92;0.50;;;13.50;99.90;;;;;;5009476;28;20502;-70
2023/10/16 14:09:20;;;;;;;5.55;0.85;;;13.50;99.90;;;;;;5028506;28;20041;-70
2023/10/16 14:11:49;;;;;;;4.75;0.70;;;13.50;99.90;;;;;;5014292;28;20048;-70
2023/10/16 14:14:19;;;;;;;2.35;0.88;;;13.40;99.90;;;;;;5011633;28;20049;-70
2023/10/16 14:16:50;;;;;;;3.20;0.60;;;13.50;99.90;;;;;;5012426;28;20049;-70
2023/10/16 14:19:17;;;;;;;4.72;0.80;;;13.50;99.90;;;;;;4998477;28;20096;-70
2023/10/16 14:21:43;;;;;;;4.68;0.93;;;13.40;99.90;;;;;;5007232;28;20049;-70
2023/10/16 14:24:17;;;;;;;;;;;13.30;99.90;;;;;;5015518;28;20052;-70
2023/10/16 14:26:45;;;;;;;2.33;0.60;;;13.30;99.90;;;;;;5013515;28;20278;-70
2023/10/16 14:29:11;;;;;;;3.33;0.80;;;13.30;99.90;;;;;;5009263;28;20490;-70
2023/10/16 14:31:36;;;;;;;2.60;0.75;;;13.20;99.90;;;;;;5013983;28;20091;-70
2023/10/16 14:34:05;;;;;;;4.97;0.90;;;13.20;99.90;;;;;;5009267;28;20087;-70